sensor_id;sensor_type;location;lat;lon;timestamp;P1;durP1;ratioP1;P2;durP2;ratioP2
7471;SDS011;3777;48.722;8.110;2023-12-04T00:00:02;15.90;;;12.03;;
7471;SDS011;3777;48.722;8.110;2023-12-04T00:02:29;16.43;;;12.83;;
7471;SDS011;3777;48.722;8.110;2023-12-04T00:04:56;18.10;;;12.83;;
7471;SDS011;3777;48.722;8.110;2023-12-04T00:07:23;16.87;;;11.93;;
7471;SDS011;3777;48.722;8.110;2023-12-04T00:09:50;17.33;;;12.60;;
7471;SDS011;3777;48.722;8.110;2023-12-04T00:12:16;19.30;;;13.57;;
7471;SDS011;3777;48.722;8.110;2023-12-04T00:14:43;17.47;;;12.20;;
7471;SDS011;3777;48.722;8.110;2023-12-04T00:17:11;18.47;;;13.47;;
7471;SDS011;3777;48.722;8.110;2023-12-04T00:19:38;17.80;;;12.97;;
7471;SDS011;3777;48.722;8.110;2023-12-04T00:22:05;19.10;;;12.97;;
7471;SDS011;3777;48.722;8.110;2023-12-04T00:24:32;18.00;;;13.30;;
7471;SDS011;3777;48.722;8.110;2023-12-04T00:26:58;18.67;;;12.73;;
7471;SDS011;3777;48.722;8.110;2023-12-04T00:29:25;18.00;;;13.27;;
7471;SDS011;3777;48.722;8.110;2023-12-04T00:31:52;19.17;;;13.27;;
7471;SDS011;3777;48.722;8.110;2023-12-04T00:34:20;16.63;;;12.73;;
7471;SDS011;3777;48.722;8.110;2023-12-04T00:36:47;23.50;;;16.17;;
7471;SDS011;3777;48.722;8.110;2023-12-04T00:39:14;21.07;;;14.47;;
7471;SDS011;3777;48.722;8.110;2023-12-04T00:41:40;17.10;;;12.90;;
7471;SDS011;3777;48.722;8.110;2023-12-04T00:44:07;19.93;;;13.30;;
7471;SDS011;3777;48.722;8.110;2023-12-04T00:46:34;18.77;;;13.97;;
7471;SDS011;3777;48.722;8.110;2023-12-04T00:49:01;21.03;;;13.97;;
7471;SDS011;3777;48.722;8.110;2023-12-04T00:51:31;20.27;;;13.73;;
7471;SDS011;3777;48.722;8.110;2023-12-04T00:54:03;17.43;;;12.47;;
7471;SDS011;3777;48.722;8.110;2023-12-04T00:56:30;20.10;;;13.67;;
7471;SDS011;3777;48.722;8.110;2023-12-04T00:58:57;17.93;;;12.47;;
7471;SDS011;3777;48.722;8.110;2023-12-04T01:01:23;17.17;;;12.07;;
7471;SDS011;3777;48.722;8.110;2023-12-04T01:03:50;16.37;;;12.27;;
7471;SDS011;3777;48.722;8.110;2023-12-04T01:06:20;17.97;;;12.40;;
7471;SDS011;3777;48.722;8.110;2023-12-04T01:08:50;15.83;;;11.67;;
7471;SDS011;3777;48.722;8.110;2023-12-04T01:11:17;15.77;;;12.37;;
7471;SDS011;3777;48.722;8.110;2023-12-04T01:13:45;16.80;;;12.20;;
7471;SDS011;3777;48.722;8.110;2023-12-04T01:16:11;16.80;;;12.17;;
7471;SDS011;3777;48.722;8.110;2023-12-04T01:18:39;17.73;;;12.03;;
7471;SDS011;3777;48.722;8.110;2023-12-04T01:21:06;17.17;;;12.10;;
7471;SDS011;3777;48.722;8.110;2023-12-04T01:23:33;17.17;;;12.33;;
7471;SDS011;3777;48.722;8.110;2023-12-04T01:26:02;15.97;;;11.33;;
7471;SDS011;3777;48.722;8.110;2023-12-04T01:28:29;16.93;;;11.83;;
7471;SDS011;3777;48.722;8.110;2023-12-04T01:30:56;15.53;;;11.60;;
7471;SDS011;3777;48.722;8.110;2023-12-04T01:33:23;15.53;;;11.53;;
7471;SDS011;3777;48.722;8.110;2023-12-04T01:35:49;14.63;;;11.63;;
7471;SDS011;3777;48.722;8.110;2023-12-04T01:38:16;19.73;;;12.83;;
7471;SDS011;3777;48.722;8.110;2023-12-04T01:40:42;17.37;;;12.60;;
7471;SDS011;3777;48.722;8.110;2023-12-04T01:43:10;19.77;;;12.07;;
7471;SDS011;3777;48.722;8.110;2023-12-04T01:45:37;16.50;;;11.50;;
7471;SDS011;3777;48.722;8.110;2023-12-04T01:48:04;16.57;;;11.60;;
7471;SDS011;3777;48.722;8.110;2023-12-04T01:50:33;15.23;;;10.73;;
7471;SDS011;3777;48.722;8.110;2023-12-04T01:53:01;14.83;;;11.23;;
7471;SDS011;3777;48.722;8.110;2023-12-04T01:55:28;16.37;;;11.87;;
7471;SDS011;3777;48.722;8.110;2023-12-04T01:57:56;16.77;;;12.00;;
7471;SDS011;3777;48.722;8.110;2023-12-04T02:00:25;16.43;;;11.67;;
7471;SDS011;3777;48.722;8.110;2023-12-04T02:02:52;15.03;;;10.93;;
7471;SDS011;3777;48.722;8.110;2023-12-04T02:05:19;15.43;;;11.40;;
7471;SDS011;3777;48.722;8.110;2023-12-04T02:07:47;15.03;;;11.70;;
7471;SDS011;3777;48.722;8.110;2023-12-04T02:10:14;15.20;;;11.23;;
7471;SDS011;3777;48.722;8.110;2023-12-04T02:12:41;17.07;;;12.53;;
7471;SDS011;3777;48.722;8.110;2023-12-04T02:15:08;15.20;;;11.67;;
7471;SDS011;3777;48.722;8.110;2023-12-04T02:17:37;16.30;;;12.00;;
7471;SDS011;3777;48.722;8.110;2023-12-04T02:20:05;17.20;;;11.70;;
7471;SDS011;3777;48.722;8.110;2023-12-04T02:22:33;17.93;;;12.23;;
7471;SDS011;3777;48.722;8.110;2023-12-04T02:25:01;17.73;;;12.33;;
7471;SDS011;3777;48.722;8.110;2023-12-04T02:27:29;16.13;;;12.20;;
7471;SDS011;3777;48.722;8.110;2023-12-04T02:30:03;17.30;;;11.77;;
7471;SDS011;3777;48.722;8.110;2023-12-04T02:32:35;16.17;;;11.80;;
7471;SDS011;3777;48.722;8.110;2023-12-04T02:35:05;16.07;;;12.03;;
7471;SDS011;3777;48.722;8.110;2023-12-04T02:37:34;15.47;;;11.83;;
7471;SDS011;3777;48.722;8.110;2023-12-04T02:40:03;16.90;;;11.10;;
7471;SDS011;3777;48.722;8.110;2023-12-04T02:42:31;17.37;;;12.13;;
7471;SDS011;3777;48.722;8.110;2023-12-04T02:44:58;15.47;;;11.67;;
7471;SDS011;3777;48.722;8.110;2023-12-04T02:47:25;15.50;;;11.67;;
7471;SDS011;3777;48.722;8.110;2023-12-04T02:49:52;17.77;;;12.47;;
7471;SDS011;3777;48.722;8.110;2023-12-04T02:52:19;16.43;;;12.00;;
7471;SDS011;3777;48.722;8.110;2023-12-04T02:54:45;15.33;;;11.87;;
7471;SDS011;3777;48.722;8.110;2023-12-04T02:57:14;16.53;;;11.87;;
7471;SDS011;3777;48.722;8.110;2023-12-04T02:59:40;15.63;;;11.67;;
7471;SDS011;3777;48.722;8.110;2023-12-04T03:02:07;15.63;;;11.43;;
7471;SDS011;3777;48.722;8.110;2023-12-04T03:04:34;15.97;;;12.30;;
7471;SDS011;3777;48.722;8.110;2023-12-04T03:07:01;15.53;;;11.60;;
7471;SDS011;3777;48.722;8.110;2023-12-04T03:09:28;18.67;;;12.80;;
7471;SDS011;3777;48.722;8.110;2023-12-04T03:11:54;14.80;;;12.00;;
7471;SDS011;3777;48.722;8.110;2023-12-04T03:14:22;17.33;;;12.77;;
7471;SDS011;3777;48.722;8.110;2023-12-04T03:16:50;16.97;;;12.23;;
7471;SDS011;3777;48.722;8.110;2023-12-04T03:19:17;16.23;;;12.90;;
7471;SDS011;3777;48.722;8.110;2023-12-04T03:21:43;17.77;;;13.17;;
7471;SDS011;3777;48.722;8.110;2023-12-04T03:24:10;17.90;;;12.73;;
7471;SDS011;3777;48.722;8.110;2023-12-04T03:26:37;18.80;;;13.07;;
7471;SDS011;3777;48.722;8.110;2023-12-04T03:29:04;16.73;;;12.63;;
7471;SDS011;3777;48.722;8.110;2023-12-04T03:31:32;21.00;;;13.20;;
7471;SDS011;3777;48.722;8.110;2023-12-04T03:33:59;17.47;;;12.83;;
7471;SDS011;3777;48.722;8.110;2023-12-04T03:36:26;17.67;;;13.30;;
7471;SDS011;3777;48.722;8.110;2023-12-04T03:38:53;16.37;;;12.07;;
7471;SDS011;3777;48.722;8.110;2023-12-04T03:41:19;17.33;;;12.70;;
7471;SDS011;3777;48.722;8.110;2023-12-04T03:43:47;17.50;;;13.13;;
7471;SDS011;3777;48.722;8.110;2023-12-04T03:46:14;17.53;;;12.80;;
7471;SDS011;3777;48.722;8.110;2023-12-04T03:48:42;16.93;;;12.63;;
7471;SDS011;3777;48.722;8.110;2023-12-04T03:51:09;17.53;;;13.03;;
7471;SDS011;3777;48.722;8.110;2023-12-04T03:53:35;16.70;;;13.40;;
7471;SDS011;3777;48.722;8.110;2023-12-04T03:56:02;16.93;;;12.80;;
7471;SDS011;3777;48.722;8.110;2023-12-04T03:58:30;18.63;;;13.13;;
7471;SDS011;3777;48.722;8.110;2023-12-04T04:00:57;19.90;;;12.80;;
7471;SDS011;3777;48.722;8.110;2023-12-04T04:03:24;17.73;;;13.43;;
7471;SDS011;3777;48.722;8.110;2023-12-04T04:05:52;17.53;;;13.77;;
7471;SDS011;3777;48.722;8.110;2023-12-04T04:08:19;17.70;;;13.30;;
7471;SDS011;3777;48.722;8.110;2023-12-04T04:10:46;17.50;;;13.00;;
7471;SDS011;3777;48.722;8.110;2023-12-04T04:13:13;18.70;;;13.33;;
7471;SDS011;3777;48.722;8.110;2023-12-04T04:15:39;15.63;;;12.17;;
7471;SDS011;3777;48.722;8.110;2023-12-04T04:18:07;20.30;;;14.47;;
7471;SDS011;3777;48.722;8.110;2023-12-04T04:20:33;18.60;;;13.67;;
7471;SDS011;3777;48.722;8.110;2023-12-04T04:23:02;18.70;;;14.13;;
7471;SDS011;3777;48.722;8.110;2023-12-04T04:25:28;20.40;;;14.67;;
7471;SDS011;3777;48.722;8.110;2023-12-04T04:27:55;21.50;;;14.33;;
7471;SDS011;3777;48.722;8.110;2023-12-04T04:30:22;20.73;;;13.97;;
7471;SDS011;3777;48.722;8.110;2023-12-04T04:32:49;17.63;;;13.53;;
7471;SDS011;3777;48.722;8.110;2023-12-04T04:35:15;22.53;;;15.30;;
7471;SDS011;3777;48.722;8.110;2023-12-04T04:37:42;24.07;;;15.77;;
7471;SDS011;3777;48.722;8.110;2023-12-04T04:40:12;21.63;;;14.73;;
7471;SDS011;3777;48.722;8.110;2023-12-04T04:42:39;19.40;;;14.47;;
7471;SDS011;3777;48.722;8.110;2023-12-04T04:45:06;18.87;;;15.10;;
7471;SDS011;3777;48.722;8.110;2023-12-04T04:47:33;18.47;;;13.47;;
7471;SDS011;3777;48.722;8.110;2023-12-04T04:50:00;19.13;;;13.83;;
7471;SDS011;3777;48.722;8.110;2023-12-04T04:52:27;19.73;;;13.93;;
7471;SDS011;3777;48.722;8.110;2023-12-04T04:54:53;17.90;;;13.33;;
7471;SDS011;3777;48.722;8.110;2023-12-04T04:57:21;16.50;;;13.30;;
7471;SDS011;3777;48.722;8.110;2023-12-04T04:59:48;15.27;;;11.70;;
7471;SDS011;3777;48.722;8.110;2023-12-04T05:02:15;16.57;;;11.80;;
7471;SDS011;3777;48.722;8.110;2023-12-04T05:04:42;17.53;;;12.43;;
7471;SDS011;3777;48.722;8.110;2023-12-04T05:07:09;15.50;;;11.17;;
7471;SDS011;3777;48.722;8.110;2023-12-04T05:09:35;16.47;;;11.53;;
7471;SDS011;3777;48.722;8.110;2023-12-04T05:12:02;14.63;;;11.77;;
7471;SDS011;3777;48.722;8.110;2023-12-04T05:14:31;15.33;;;11.30;;
7471;SDS011;3777;48.722;8.110;2023-12-04T05:16:58;14.90;;;11.60;;
7471;SDS011;3777;48.722;8.110;2023-12-04T05:19:24;16.30;;;11.70;;
7471;SDS011;3777;48.722;8.110;2023-12-04T05:21:51;17.67;;;11.90;;
7471;SDS011;3777;48.722;8.110;2023-12-04T05:24:18;18.53;;;12.00;;
7471;SDS011;3777;48.722;8.110;2023-12-04T05:26:45;16.07;;;11.77;;
7471;SDS011;3777;48.722;8.110;2023-12-04T05:29:12;16.53;;;11.67;;
7471;SDS011;3777;48.722;8.110;2023-12-04T05:31:40;17.33;;;12.40;;
7471;SDS011;3777;48.722;8.110;2023-12-04T05:34:06;16.07;;;11.20;;
7471;SDS011;3777;48.722;8.110;2023-12-04T05:36:33;16.07;;;10.97;;
7471;SDS011;3777;48.722;8.110;2023-12-04T05:39:00;17.63;;;11.40;;
7471;SDS011;3777;48.722;8.110;2023-12-04T05:41:28;17.33;;;12.13;;
7471;SDS011;3777;48.722;8.110;2023-12-04T05:43:54;15.23;;;10.83;;
7471;SDS011;3777;48.722;8.110;2023-12-04T05:46:21;15.27;;;11.90;;
7471;SDS011;3777;48.722;8.110;2023-12-04T05:48:49;16.00;;;11.87;;
7471;SDS011;3777;48.722;8.110;2023-12-04T05:51:16;16.20;;;11.17;;
7471;SDS011;3777;48.722;8.110;2023-12-04T05:53:43;15.97;;;11.73;;
7471;SDS011;3777;48.722;8.110;2023-12-04T05:56:10;14.63;;;10.40;;
7471;SDS011;3777;48.722;8.110;2023-12-04T05:58:37;15.00;;;11.17;;
7471;SDS011;3777;48.722;8.110;2023-12-04T06:01:04;16.03;;;11.77;;
7471;SDS011;3777;48.722;8.110;2023-12-04T06:03:31;18.07;;;12.80;;
7471;SDS011;3777;48.722;8.110;2023-12-04T06:05:59;15.57;;;12.37;;
7471;SDS011;3777;48.722;8.110;2023-12-04T06:08:26;16.20;;;12.77;;
7471;SDS011;3777;48.722;8.110;2023-12-04T06:10:53;15.83;;;11.20;;
7471;SDS011;3777;48.722;8.110;2023-12-04T06:13:20;13.83;;;11.67;;
7471;SDS011;3777;48.722;8.110;2023-12-04T06:15:47;15.97;;;12.43;;
7471;SDS011;3777;48.722;8.110;2023-12-04T06:18:13;16.10;;;12.20;;
7471;SDS011;3777;48.722;8.110;2023-12-04T06:20:40;16.87;;;11.57;;
7471;SDS011;3777;48.722;8.110;2023-12-04T06:23:09;16.80;;;12.33;;
7471;SDS011;3777;48.722;8.110;2023-12-04T06:25:36;16.90;;;12.30;;
7471;SDS011;3777;48.722;8.110;2023-12-04T06:28:03;18.80;;;13.13;;
7471;SDS011;3777;48.722;8.110;2023-12-04T06:30:31;20.83;;;14.97;;
7471;SDS011;3777;48.722;8.110;2023-12-04T06:32:58;18.70;;;13.23;;
7471;SDS011;3777;48.722;8.110;2023-12-04T06:35:25;19.60;;;13.67;;
7471;SDS011;3777;48.722;8.110;2023-12-04T06:37:53;25.60;;;16.07;;
7471;SDS011;3777;48.722;8.110;2023-12-04T06:40:22;28.97;;;19.53;;
7471;SDS011;3777;48.722;8.110;2023-12-04T06:42:49;20.20;;;15.70;;
7471;SDS011;3777;48.722;8.110;2023-12-04T06:45:17;15.60;;;12.33;;
7471;SDS011;3777;48.722;8.110;2023-12-04T06:47:45;16.50;;;11.63;;
7471;SDS011;3777;48.722;8.110;2023-12-04T06:50:14;14.37;;;10.90;;
7471;SDS011;3777;48.722;8.110;2023-12-04T06:52:41;14.93;;;10.40;;
7471;SDS011;3777;48.722;8.110;2023-12-04T06:55:08;11.67;;;9.77;;
7471;SDS011;3777;48.722;8.110;2023-12-04T06:57:36;14.07;;;10.77;;
7471;SDS011;3777;48.722;8.110;2023-12-04T07:00:03;13.67;;;10.07;;
7471;SDS011;3777;48.722;8.110;2023-12-04T07:02:32;12.93;;;9.70;;
7471;SDS011;3777;48.722;8.110;2023-12-04T07:04:59;14.10;;;10.37;;
7471;SDS011;3777;48.722;8.110;2023-12-04T07:07:28;14.27;;;11.00;;
7471;SDS011;3777;48.722;8.110;2023-12-04T07:09:54;14.40;;;11.30;;
7471;SDS011;3777;48.722;8.110;2023-12-04T07:12:21;15.80;;;10.83;;
7471;SDS011;3777;48.722;8.110;2023-12-04T07:14:49;12.87;;;10.67;;
7471;SDS011;3777;48.722;8.110;2023-12-04T07:17:16;14.67;;;10.63;;
7471;SDS011;3777;48.722;8.110;2023-12-04T07:19:43;13.53;;;10.97;;
7471;SDS011;3777;48.722;8.110;2023-12-04T07:22:10;16.67;;;10.70;;
7471;SDS011;3777;48.722;8.110;2023-12-04T07:24:36;13.73;;;10.87;;
7471;SDS011;3777;48.722;8.110;2023-12-04T07:27:03;12.80;;;10.50;;
7471;SDS011;3777;48.722;8.110;2023-12-04T07:29:31;14.13;;;10.53;;
7471;SDS011;3777;48.722;8.110;2023-12-04T07:31:59;14.07;;;10.67;;
7471;SDS011;3777;48.722;8.110;2023-12-04T07:34:26;13.97;;;10.50;;
7471;SDS011;3777;48.722;8.110;2023-12-04T07:36:53;14.07;;;10.57;;
7471;SDS011;3777;48.722;8.110;2023-12-04T07:39:20;15.17;;;11.40;;
7471;SDS011;3777;48.722;8.110;2023-12-04T07:41:46;13.50;;;10.27;;
7471;SDS011;3777;48.722;8.110;2023-12-04T07:44:13;16.53;;;11.37;;
7471;SDS011;3777;48.722;8.110;2023-12-04T07:46:40;16.57;;;10.30;;
7471;SDS011;3777;48.722;8.110;2023-12-04T07:49:09;14.20;;;11.47;;
7471;SDS011;3777;48.722;8.110;2023-12-04T07:51:35;15.87;;;11.67;;
7471;SDS011;3777;48.722;8.110;2023-12-04T07:54:02;14.33;;;10.83;;
7471;SDS011;3777;48.722;8.110;2023-12-04T07:56:30;14.80;;;11.43;;
7471;SDS011;3777;48.722;8.110;2023-12-04T07:58:57;15.33;;;11.13;;
7471;SDS011;3777;48.722;8.110;2023-12-04T08:01:23;14.90;;;11.40;;
7471;SDS011;3777;48.722;8.110;2023-12-04T08:03:50;15.47;;;11.00;;
7471;SDS011;3777;48.722;8.110;2023-12-04T08:06:18;13.63;;;10.80;;
7471;SDS011;3777;48.722;8.110;2023-12-04T08:08:45;13.50;;;10.30;;
7471;SDS011;3777;48.722;8.110;2023-12-04T08:11:12;16.07;;;11.63;;
7471;SDS011;3777;48.722;8.110;2023-12-04T08:13:39;13.77;;;10.63;;
7471;SDS011;3777;48.722;8.110;2023-12-04T08:16:12;15.23;;;11.60;;
7471;SDS011;3777;48.722;8.110;2023-12-04T08:18:40;14.83;;;11.53;;
7471;SDS011;3777;48.722;8.110;2023-12-04T08:21:07;14.13;;;11.07;;
7471;SDS011;3777;48.722;8.110;2023-12-04T08:23:35;16.03;;;11.43;;
7471;SDS011;3777;48.722;8.110;2023-12-04T08:26:02;16.47;;;12.30;;
7471;SDS011;3777;48.722;8.110;2023-12-04T08:28:30;16.10;;;12.10;;
7471;SDS011;3777;48.722;8.110;2023-12-04T08:30:57;15.20;;;11.27;;
7471;SDS011;3777;48.722;8.110;2023-12-04T08:33:23;16.90;;;11.80;;
7471;SDS011;3777;48.722;8.110;2023-12-04T08:35:50;16.00;;;11.80;;
7471;SDS011;3777;48.722;8.110;2023-12-04T08:38:17;14.53;;;11.40;;
7471;SDS011;3777;48.722;8.110;2023-12-04T08:40:45;14.33;;;11.10;;
7471;SDS011;3777;48.722;8.110;2023-12-04T08:43:13;14.30;;;10.73;;
7471;SDS011;3777;48.722;8.110;2023-12-04T08:45:39;14.10;;;10.33;;
7471;SDS011;3777;48.722;8.110;2023-12-04T08:48:06;14.87;;;10.80;;
7471;SDS011;3777;48.722;8.110;2023-12-04T08:50:34;14.60;;;11.73;;
7471;SDS011;3777;48.722;8.110;2023-12-04T08:53:01;17.97;;;12.50;;
7471;SDS011;3777;48.722;8.110;2023-12-04T08:55:28;16.43;;;12.40;;
7471;SDS011;3777;48.722;8.110;2023-12-04T08:57:56;14.23;;;11.17;;
7471;SDS011;3777;48.722;8.110;2023-12-04T09:00:23;15.63;;;12.33;;
7471;SDS011;3777;48.722;8.110;2023-12-04T09:02:50;15.57;;;11.83;;
7471;SDS011;3777;48.722;8.110;2023-12-04T09:05:18;16.97;;;12.43;;
7471;SDS011;3777;48.722;8.110;2023-12-04T09:07:45;17.23;;;12.03;;
7471;SDS011;3777;48.722;8.110;2023-12-04T09:10:11;16.73;;;12.17;;
7471;SDS011;3777;48.722;8.110;2023-12-04T09:12:39;16.90;;;11.50;;
7471;SDS011;3777;48.722;8.110;2023-12-04T09:15:07;15.10;;;12.10;;
7471;SDS011;3777;48.722;8.110;2023-12-04T09:17:34;17.57;;;13.07;;
7471;SDS011;3777;48.722;8.110;2023-12-04T09:20:01;19.03;;;13.87;;
7471;SDS011;3777;48.722;8.110;2023-12-04T09:22:30;17.77;;;13.93;;
7471;SDS011;3777;48.722;8.110;2023-12-04T09:25:00;17.63;;;14.00;;
7471;SDS011;3777;48.722;8.110;2023-12-04T09:27:26;18.50;;;13.03;;
7471;SDS011;3777;48.722;8.110;2023-12-04T09:29:53;19.40;;;14.47;;
7471;SDS011;3777;48.722;8.110;2023-12-04T09:32:21;21.93;;;14.90;;
7471;SDS011;3777;48.722;8.110;2023-12-04T09:34:48;22.50;;;15.80;;
7471;SDS011;3777;48.722;8.110;2023-12-04T09:37:15;22.83;;;16.67;;
7471;SDS011;3777;48.722;8.110;2023-12-04T09:39:41;26.40;;;18.30;;
7471;SDS011;3777;48.722;8.110;2023-12-04T09:42:08;24.40;;;17.50;;
7471;SDS011;3777;48.722;8.110;2023-12-04T09:44:36;21.20;;;15.50;;
7471;SDS011;3777;48.722;8.110;2023-12-04T09:47:03;23.97;;;17.10;;
7471;SDS011;3777;48.722;8.110;2023-12-04T09:49:32;23.50;;;17.30;;
7471;SDS011;3777;48.722;8.110;2023-12-04T09:51:59;20.23;;;15.47;;
7471;SDS011;3777;48.722;8.110;2023-12-04T09:54:27;22.00;;;15.57;;
7471;SDS011;3777;48.722;8.110;2023-12-04T09:56:55;22.20;;;15.07;;
7471;SDS011;3777;48.722;8.110;2023-12-04T09:59:21;20.90;;;15.20;;
7471;SDS011;3777;48.722;8.110;2023-12-04T10:01:50;19.87;;;14.77;;
7471;SDS011;3777;48.722;8.110;2023-12-04T10:04:17;17.57;;;13.40;;
7471;SDS011;3777;48.722;8.110;2023-12-04T10:06:47;18.00;;;14.17;;
7471;SDS011;3777;48.722;8.110;2023-12-04T10:09:17;17.00;;;12.37;;
7471;SDS011;3777;48.722;8.110;2023-12-04T10:11:44;16.97;;;12.63;;
7471;SDS011;3777;48.722;8.110;2023-12-04T10:14:15;16.00;;;12.67;;
7471;SDS011;3777;48.722;8.110;2023-12-04T10:16:43;17.67;;;12.93;;
7471;SDS011;3777;48.722;8.110;2023-12-04T10:19:19;17.33;;;12.30;;
7471;SDS011;3777;48.722;8.110;2023-12-04T10:21:50;18.30;;;12.10;;
7471;SDS011;3777;48.722;8.110;2023-12-04T10:24:27;14.47;;;11.83;;
7471;SDS011;3777;48.722;8.110;2023-12-04T10:26:55;15.73;;;12.27;;
7471;SDS011;3777;48.722;8.110;2023-12-04T10:29:23;18.10;;;13.17;;
7471;SDS011;3777;48.722;8.110;2023-12-04T10:31:52;17.67;;;12.80;;
7471;SDS011;3777;48.722;8.110;2023-12-04T10:34:21;18.37;;;12.43;;
7471;SDS011;3777;48.722;8.110;2023-12-04T10:36:52;20.03;;;14.03;;
7471;SDS011;3777;48.722;8.110;2023-12-04T10:39:19;18.97;;;13.83;;
7471;SDS011;3777;48.722;8.110;2023-12-04T10:41:48;17.47;;;13.00;;
7471;SDS011;3777;48.722;8.110;2023-12-04T10:44:26;17.47;;;13.87;;
7471;SDS011;3777;48.722;8.110;2023-12-04T10:46:53;20.77;;;15.07;;
7471;SDS011;3777;48.722;8.110;2023-12-04T10:49:23;19.20;;;14.47;;
7471;SDS011;3777;48.722;8.110;2023-12-04T10:51:53;20.23;;;14.90;;
7471;SDS011;3777;48.722;8.110;2023-12-04T10:54:22;19.03;;;14.33;;
7471;SDS011;3777;48.722;8.110;2023-12-04T10:56:49;19.23;;;13.77;;
7471;SDS011;3777;48.722;8.110;2023-12-04T10:59:18;18.53;;;13.57;;
7471;SDS011;3777;48.722;8.110;2023-12-04T11:01:52;22.00;;;13.80;;
7471;SDS011;3777;48.722;8.110;2023-12-04T11:04:21;18.17;;;13.73;;
7471;SDS011;3777;48.722;8.110;2023-12-04T11:06:52;20.93;;;14.40;;
7471;SDS011;3777;48.722;8.110;2023-12-04T11:09:21;18.83;;;13.90;;
7471;SDS011;3777;48.722;8.110;2023-12-04T11:11:52;16.87;;;13.03;;
7471;SDS011;3777;48.722;8.110;2023-12-04T11:14:23;17.87;;;13.70;;
7471;SDS011;3777;48.722;8.110;2023-12-04T11:16:56;17.27;;;13.57;;
7471;SDS011;3777;48.722;8.110;2023-12-04T11:19:28;17.83;;;13.10;;
7471;SDS011;3777;48.722;8.110;2023-12-04T11:21:58;20.27;;;14.70;;
7471;SDS011;3777;48.722;8.110;2023-12-04T11:24:25;18.80;;;13.93;;
7471;SDS011;3777;48.722;8.110;2023-12-04T11:26:52;18.83;;;14.43;;
7471;SDS011;3777;48.722;8.110;2023-12-04T11:29:20;17.40;;;13.87;;
7471;SDS011;3777;48.722;8.110;2023-12-04T11:31:48;20.27;;;15.07;;
7471;SDS011;3777;48.722;8.110;2023-12-04T11:34:15;20.40;;;15.80;;
7471;SDS011;3777;48.722;8.110;2023-12-04T11:36:42;21.03;;;15.27;;
7471;SDS011;3777;48.722;8.110;2023-12-04T11:39:12;21.27;;;15.37;;
7471;SDS011;3777;48.722;8.110;2023-12-04T11:41:40;22.67;;;17.20;;
7471;SDS011;3777;48.722;8.110;2023-12-04T11:44:11;25.27;;;17.73;;
7471;SDS011;3777;48.722;8.110;2023-12-04T11:46:39;19.10;;;14.07;;
7471;SDS011;3777;48.722;8.110;2023-12-04T11:49:29;18.13;;;14.37;;
7471;SDS011;3777;48.722;8.110;2023-12-04T11:51:57;17.37;;;13.63;;
7471;SDS011;3777;48.722;8.110;2023-12-04T11:54:26;19.70;;;14.70;;
7471;SDS011;3777;48.722;8.110;2023-12-04T11:56:58;19.67;;;14.70;;
7471;SDS011;3777;48.722;8.110;2023-12-04T11:59:26;18.40;;;14.43;;
7471;SDS011;3777;48.722;8.110;2023-12-04T12:01:54;18.87;;;14.53;;
7471;SDS011;3777;48.722;8.110;2023-12-04T12:04:22;19.67;;;14.50;;
7471;SDS011;3777;48.722;8.110;2023-12-04T12:06:49;20.53;;;15.73;;
7471;SDS011;3777;48.722;8.110;2023-12-04T12:09:16;21.73;;;14.83;;
7471;SDS011;3777;48.722;8.110;2023-12-04T12:11:45;20.57;;;15.07;;
7471;SDS011;3777;48.722;8.110;2023-12-04T12:14:12;23.80;;;16.70;;
7471;SDS011;3777;48.722;8.110;2023-12-04T12:16:39;24.33;;;15.43;;
7471;SDS011;3777;48.722;8.110;2023-12-04T12:19:06;20.07;;;13.90;;
7471;SDS011;3777;48.722;8.110;2023-12-04T12:21:33;19.60;;;14.13;;
7471;SDS011;3777;48.722;8.110;2023-12-04T12:24:00;19.83;;;14.03;;
7471;SDS011;3777;48.722;8.110;2023-12-04T12:26:28;22.90;;;15.50;;
7471;SDS011;3777;48.722;8.110;2023-12-04T12:28:57;22.50;;;15.20;;
7471;SDS011;3777;48.722;8.110;2023-12-04T12:31:23;24.13;;;15.80;;
7471;SDS011;3777;48.722;8.110;2023-12-04T12:33:50;25.57;;;14.73;;
7471;SDS011;3777;48.722;8.110;2023-12-04T12:36:18;21.80;;;14.83;;
7471;SDS011;3777;48.722;8.110;2023-12-04T12:38:45;19.97;;;14.90;;
7471;SDS011;3777;48.722;8.110;2023-12-04T12:41:14;20.13;;;14.60;;
7471;SDS011;3777;48.722;8.110;2023-12-04T12:43:41;31.83;;;21.07;;
7471;SDS011;3777;48.722;8.110;2023-12-04T12:46:10;25.77;;;17.03;;
7471;SDS011;3777;48.722;8.110;2023-12-04T12:48:37;22.73;;;15.53;;
7471;SDS011;3777;48.722;8.110;2023-12-04T12:51:05;27.77;;;16.63;;
7471;SDS011;3777;48.722;8.110;2023-12-04T12:53:33;20.70;;;15.57;;
7471;SDS011;3777;48.722;8.110;2023-12-04T12:56:00;23.27;;;16.17;;
7471;SDS011;3777;48.722;8.110;2023-12-04T12:58:27;22.17;;;16.90;;
7471;SDS011;3777;48.722;8.110;2023-12-04T13:00:54;28.97;;;17.53;;
7471;SDS011;3777;48.722;8.110;2023-12-04T13:03:23;22.47;;;15.67;;
7471;SDS011;3777;48.722;8.110;2023-12-04T13:05:49;27.40;;;17.97;;
7471;SDS011;3777;48.722;8.110;2023-12-04T13:08:16;29.97;;;18.70;;
7471;SDS011;3777;48.722;8.110;2023-12-04T13:10:43;26.77;;;18.60;;
7471;SDS011;3777;48.722;8.110;2023-12-04T13:13:10;27.63;;;19.23;;
7471;SDS011;3777;48.722;8.110;2023-12-04T13:15:37;28.87;;;20.47;;
7471;SDS011;3777;48.722;8.110;2023-12-04T13:18:04;29.73;;;20.50;;
7471;SDS011;3777;48.722;8.110;2023-12-04T13:20:32;28.63;;;20.07;;
7471;SDS011;3777;48.722;8.110;2023-12-04T13:22:59;30.80;;;22.23;;
7471;SDS011;3777;48.722;8.110;2023-12-04T13:25:26;30.57;;;22.00;;
7471;SDS011;3777;48.722;8.110;2023-12-04T13:27:53;32.80;;;23.60;;
7471;SDS011;3777;48.722;8.110;2023-12-04T13:30:20;33.37;;;24.03;;
7471;SDS011;3777;48.722;8.110;2023-12-04T13:32:47;31.93;;;23.43;;
7471;SDS011;3777;48.722;8.110;2023-12-04T13:35:15;31.73;;;22.20;;
7471;SDS011;3777;48.722;8.110;2023-12-04T13:37:43;32.20;;;23.30;;
7471;SDS011;3777;48.722;8.110;2023-12-04T13:40:10;31.80;;;23.10;;
7471;SDS011;3777;48.722;8.110;2023-12-04T13:42:41;32.40;;;22.07;;
7471;SDS011;3777;48.722;8.110;2023-12-04T13:45:25;33.33;;;23.03;;
7471;SDS011;3777;48.722;8.110;2023-12-04T13:47:52;32.07;;;22.57;;
7471;SDS011;3777;48.722;8.110;2023-12-04T13:50:19;35.23;;;22.87;;
7471;SDS011;3777;48.722;8.110;2023-12-04T13:52:47;28.70;;;21.13;;
7471;SDS011;3777;48.722;8.110;2023-12-04T13:55:20;32.03;;;21.77;;
7471;SDS011;3777;48.722;8.110;2023-12-04T13:58:01;27.33;;;20.63;;
7471;SDS011;3777;48.722;8.110;2023-12-04T14:00:35;28.10;;;21.90;;
7471;SDS011;3777;48.722;8.110;2023-12-04T14:03:02;34.43;;;22.40;;
7471;SDS011;3777;48.722;8.110;2023-12-04T14:05:30;28.20;;;22.20;;
7471;SDS011;3777;48.722;8.110;2023-12-04T14:07:58;31.57;;;21.93;;
7471;SDS011;3777;48.722;8.110;2023-12-04T14:10:25;31.53;;;23.83;;
7471;SDS011;3777;48.722;8.110;2023-12-04T14:12:53;35.77;;;22.83;;
7471;SDS011;3777;48.722;8.110;2023-12-04T14:15:20;34.07;;;21.77;;
7471;SDS011;3777;48.722;8.110;2023-12-04T14:17:47;32.27;;;21.97;;
7471;SDS011;3777;48.722;8.110;2023-12-04T14:20:14;29.77;;;21.53;;
7471;SDS011;3777;48.722;8.110;2023-12-04T14:22:43;30.57;;;21.23;;
7471;SDS011;3777;48.722;8.110;2023-12-04T14:25:13;34.60;;;21.63;;
7471;SDS011;3777;48.722;8.110;2023-12-04T14:27:39;33.93;;;21.97;;
7471;SDS011;3777;48.722;8.110;2023-12-04T14:30:08;33.37;;;22.43;;
7471;SDS011;3777;48.722;8.110;2023-12-04T14:32:36;32.33;;;22.00;;
7471;SDS011;3777;48.722;8.110;2023-12-04T14:35:03;30.40;;;22.30;;
7471;SDS011;3777;48.722;8.110;2023-12-04T14:37:32;29.67;;;24.20;;
7471;SDS011;3777;48.722;8.110;2023-12-04T14:39:59;32.00;;;23.47;;
7471;SDS011;3777;48.722;8.110;2023-12-04T14:42:28;31.13;;;22.83;;
7471;SDS011;3777;48.722;8.110;2023-12-04T14:44:55;31.10;;;24.40;;
7471;SDS011;3777;48.722;8.110;2023-12-04T14:47:21;28.10;;;22.27;;
7471;SDS011;3777;48.722;8.110;2023-12-04T14:49:48;30.00;;;22.00;;